Alpine Village, Colorado
Current Conditions -  °F | °C
As of 4:14 AM on Friday 31 Oct 2014 (Local Time) from K7BM Reporting Station
Clear Clear  
Wind Chill:   Ceiling: Unl
Heat Index:   Visibility: 10mi
Dew Point: -6°   Wind: 0mph
Humidity: 56%   Direction: NA
Pressure: 30.47"   Gusts: NA
Location:  38.7194°N, 106.276°W
Report Text: K7BM 311014Z AUTO 00000KT 10SM CLR 02/M06 A3047 RMK AO2
Loading
Personal Weather Stations






























Interactive Weather Map New forecast layout! Learn more

10-Day Weather Forecast

Advertisements
Track Severe Weather on mobile